createdAt,value
2017-05-31T00:00:40.361Z,86.77
2017-05-31T00:01:41.034Z,87.35
2017-05-31T00:02:41.712Z,87.35
2017-05-31T00:03:42.384Z,87.05
2017-05-31T00:04:43.052Z,87.35
2017-05-31T00:05:43.718Z,87.63
2017-05-31T00:06:44.433Z,87.54
2017-05-31T00:07:45.099Z,87.15
2017-05-31T00:08:45.763Z,87.05
2017-05-31T00:09:46.439Z,87.35
2017-05-31T00:10:47.150Z,87.25
2017-05-31T00:11:47.844Z,87.15
2017-05-31T00:12:48.507Z,87.25
2017-05-31T00:13:49.195Z,87.21
2017-05-31T00:14:49.863Z,87.11
2017-05-31T00:15:50.522Z,87.21
2017-05-31T00:16:51.213Z,87.25
2017-05-31T00:17:51.870Z,86.92
2017-05-31T00:18:52.540Z,86.92
2017-05-31T00:19:53.226Z,86.87
2017-05-31T00:20:53.898Z,87.01
2017-05-31T00:21:54.562Z,87.01
2017-05-31T00:22:55.241Z,86.77
2017-05-31T00:23:55.919Z,86.96
2017-05-31T00:24:56.577Z,87.11
2017-05-31T00:25:57.252Z,87.01
2017-05-31T00:26:57.949Z,87.21
2017-05-31T00:27:58.628Z,87.49
2017-05-31T00:28:59.308Z,87.21
2017-05-31T00:30:00.014Z,87.11
2017-05-31T00:31:00.704Z,87.11
2017-05-31T00:32:01.403Z,87.3
2017-05-31T00:33:02.068Z,87.49
2017-05-31T00:34:02.732Z,87.49
2017-05-31T00:35:03.394Z,87.59
2017-05-31T00:36:04.062Z,87.98
2017-05-31T00:37:04.733Z,87.4
2017-05-31T00:38:05.411Z,87.78
2017-05-31T00:39:06.075Z,87.3
2017-05-31T00:40:06.751Z,87.88
2017-05-31T00:41:07.417Z,87.98
2017-05-31T00:42:08.097Z,87.68
2017-05-31T00:43:08.787Z,87.88
2017-05-31T00:44:09.452Z,88.17
2017-05-31T00:45:10.122Z,87.88
2017-05-31T00:46:10.785Z,88.07
2017-05-31T00:47:11.461Z,88.07
2017-05-31T00:48:12.132Z,87.4
2017-05-31T00:49:12.810Z,87.4
2017-05-31T00:50:13.490Z,88.45
2017-05-31T00:51:14.163Z,88.45
2017-05-31T00:52:14.829Z,88.35
2017-05-31T00:53:15.487Z,88.45
2017-05-31T00:54:16.143Z,88.07
2017-05-31T00:55:16.813Z,88.17
2017-05-31T00:56:17.482Z,88.26
2017-05-31T00:57:18.169Z,88.07
2017-05-31T00:58:18.847Z,88.55
2017-05-31T00:59:19.530Z,88.84
2017-05-31T01:00:20.198Z,89.03
2017-05-31T01:01:20.885Z,88.74
2017-05-31T01:02:21.551Z,88.93
2017-05-31T01:03:22.224Z,88.84
2017-05-31T01:04:22.902Z,89.03
2017-05-31T01:05:23.606Z,89.41
2017-05-31T01:06:24.306Z,89.32
2017-05-31T01:07:24.981Z,89.12
2017-05-31T01:08:25.661Z,89.61
2017-05-31T01:09:26.320Z,89.32
2017-05-31T01:10:26.975Z,89.32
2017-05-31T01:11:27.644Z,89.12
2017-05-31T01:12:28.309Z,89.51
2017-05-31T01:13:28.971Z,89.51
2017-05-31T01:14:29.658Z,89.51
2017-05-31T01:15:30.321Z,89.22
2017-05-31T01:16:30.987Z,89.41
2017-05-31T01:17:31.664Z,88.84
2017-05-31T01:18:32.355Z,88.93
2017-05-31T01:19:33.014Z,89.41
2017-05-31T01:20:33.683Z,89.41
2017-05-31T01:21:34.352Z,89.7
2017-05-31T01:22:35.018Z,89.61
2017-05-31T01:23:35.688Z,89.41
2017-05-31T01:24:36.356Z,89.51
2017-05-31T01:25:37.021Z,89.03
2017-05-31T01:26:37.699Z,89.32
2017-05-31T01:27:38.374Z,89.32
2017-05-31T01:28:39.099Z,88.93
2017-05-31T01:29:39.738Z,89.51
2017-05-31T01:30:40.458Z,89.12
2017-05-31T01:31:41.127Z,89.22
2017-05-31T01:32:41.803Z,89.51
2017-05-31T01:33:42.472Z,89.12
2017-05-31T01:34:43.147Z,89.61
2017-05-31T01:35:43.853Z,90.08
2017-05-31T01:36:44.515Z,89.12
2017-05-31T01:37:45.204Z,89.7
2017-05-31T01:38:45.893Z,89.89
2017-05-31T01:39:46.562Z,90.18
2017-05-31T01:40:47.233Z,89.79
2017-05-31T01:41:47.915Z,89.7
2017-05-31T01:42:48.587Z,89.7
2017-05-31T01:43:49.247Z,90.28
2017-05-31T01:44:49.914Z,89.51
2017-05-31T01:45:50.589Z,90.28
2017-05-31T01:46:51.254Z,89.99
2017-05-31T01:47:51.952Z,90.37
2017-05-31T01:48:52.721Z,90.75
2017-05-31T01:49:53.390Z,90.37
2017-05-31T01:50:54.061Z,90.56
2017-05-31T01:51:54.761Z,90.37
2017-05-31T01:52:55.433Z,90.28
2017-05-31T01:53:56.099Z,90.28
2017-05-31T01:54:56.768Z,89.99
2017-05-31T01:55:57.449Z,90.37
2017-05-31T01:57:04.770Z,90.28
2017-05-31T01:58:05.475Z,90.75
2017-05-31T01:59:06.161Z,90.28
2017-05-31T02:00:06.818Z,90.66
2017-05-31T02:01:07.496Z,90.47
2017-05-31T02:02:08.170Z,90.66
2017-05-31T02:03:08.838Z,90.66
2017-05-31T02:04:09.507Z,90.66
2017-05-31T02:05:10.220Z,90.95
2017-05-31T02:06:10.899Z,90.75
2017-05-31T02:07:11.580Z,91.42
2017-05-31T02:08:12.253Z,91.24
2017-05-31T02:09:12.984Z,91.72
2017-05-31T02:10:13.668Z,91.52
2017-05-31T02:11:14.338Z,91.62
2017-05-31T02:12:14.999Z,91.62
2017-05-31T02:13:15.671Z,91.19
2017-05-31T02:14:16.334Z,91.57
2017-05-31T02:15:17.003Z,91.38
2017-05-31T02:16:17.677Z,91.42
2017-05-31T02:17:18.354Z,91.77
2017-05-31T02:18:19.029Z,91.48
2017-05-31T02:19:19.701Z,92.05
2017-05-31T02:20:20.365Z,92.05
2017-05-31T02:21:21.031Z,92.15
2017-05-31T02:22:21.708Z,91.96
2017-05-31T02:23:22.400Z,92.34
2017-05-31T02:24:23.104Z,92.05
2017-05-31T02:25:23.800Z,92.15
2017-05-31T02:26:24.491Z,92.15
2017-05-31T02:27:25.180Z,92.34
2017-05-31T02:28:25.884Z,92.63
2017-05-31T02:29:26.563Z,92.82
2017-05-31T02:30:27.234Z,92.24
2017-05-31T02:31:27.895Z,93.11
2017-05-31T02:32:28.563Z,93.11
2017-05-31T02:33:29.228Z,93.11
2017-05-31T02:34:29.898Z,92.72
2017-05-31T02:35:30.561Z,93.49
2017-05-31T02:36:31.256Z,93.49
2017-05-31T02:37:31.927Z,93.68
2017-05-31T02:38:32.594Z,93.59
2017-05-31T02:39:33.250Z,93.49
2017-05-31T02:40:33.946Z,93.68
2017-05-31T02:41:34.608Z,94.17
2017-05-31T02:42:35.310Z,93.59
2017-05-31T02:43:35.992Z,93.97
2017-05-31T02:44:36.668Z,93.59
2017-05-31T02:45:37.349Z,93.49
2017-05-31T02:46:38.026Z,93.01
2017-05-31T02:47:38.697Z,93.59
2017-05-31T02:48:39.381Z,93.49
2017-05-31T02:49:40.055Z,93.68
2017-05-31T02:50:40.722Z,93.49
2017-05-31T02:51:41.395Z,93.78
2017-05-31T02:52:42.067Z,93.88
2017-05-31T02:53:42.757Z,93.49
2017-05-31T02:54:43.424Z,93.59
2017-05-31T02:55:44.091Z,93.49
2017-05-31T02:56:44.755Z,93.49
2017-05-31T02:57:45.426Z,93.49
2017-05-31T02:58:46.099Z,94.07
2017-05-31T02:59:46.769Z,93.88
2017-05-31T03:00:47.460Z,93.88
2017-05-31T03:01:48.152Z,94.64
2017-05-31T03:02:48.845Z,95.12
2017-05-31T03:03:49.518Z,95.12
2017-05-31T03:04:50.197Z,94.84
2017-05-31T03:05:50.870Z,94.84
2017-05-31T03:06:51.548Z,94.84
2017-05-31T03:07:52.220Z,95.21
2017-05-31T03:08:52.909Z,94.84
2017-05-31T03:09:53.588Z,94.84
2017-05-31T03:10:54.279Z,95.31
2017-05-31T03:11:54.952Z,94.93
2017-05-31T03:12:55.655Z,94.93
2017-05-31T03:13:56.328Z,95.17
2017-05-31T03:14:57.004Z,95.03
2017-05-31T03:15:57.675Z,94.79
2017-05-31T03:16:58.361Z,94.74
2017-05-31T03:17:59.032Z,94.74
2017-05-31T03:18:59.709Z,95.03
2017-05-31T03:20:00.380Z,94.88
2017-05-31T03:21:01.048Z,94.93
2017-05-31T03:22:01.716Z,95.07
2017-05-31T03:23:02.389Z,94.93
2017-05-31T03:24:03.136Z,95.21
2017-05-31T03:25:03.805Z,95.17
2017-05-31T03:26:04.466Z,95.12
2017-05-31T03:27:05.146Z,94.93
2017-05-31T03:28:05.807Z,95.03
2017-05-31T03:29:06.499Z,94.84
2017-05-31T03:30:07.148Z,95.7
2017-05-31T03:31:07.816Z,95.21
2017-05-31T03:32:08.497Z,94.93
2017-05-31T03:33:09.167Z,95.12
2017-05-31T03:34:09.850Z,95.03
2017-05-31T03:35:10.521Z,95.31
2017-05-31T03:36:11.201Z,94.79
2017-05-31T03:37:11.874Z,95.07
2017-05-31T03:38:12.541Z,94.54
2017-05-31T03:39:13.207Z,94.59
2017-05-31T03:40:13.879Z,95.17
2017-05-31T03:41:14.540Z,94.74
2017-05-31T03:42:15.213Z,94.64
2017-05-31T03:43:15.888Z,94.45
2017-05-31T03:44:16.563Z,94.54
2017-05-31T03:45:17.247Z,94.64
2017-05-31T03:46:17.914Z,95.12
2017-05-31T03:47:18.586Z,94.45
2017-05-31T03:48:19.302Z,93.78
2017-05-31T03:49:19.967Z,93.68
2017-05-31T03:50:20.642Z,94.26
2017-05-31T03:51:21.307Z,94.26
2017-05-31T03:52:21.986Z,94.45
2017-05-31T03:53:22.687Z,94.45
2017-05-31T03:54:23.355Z,94.64
2017-05-31T03:55:24.082Z,95.03
2017-05-31T03:56:24.818Z,95.12
2017-05-31T03:57:25.448Z,94.93
2017-05-31T03:58:26.115Z,94.98
2017-05-31T03:59:26.792Z,95.12
2017-05-31T04:00:27.453Z,95.31
2017-05-31T04:01:28.148Z,95.12
2017-05-31T04:02:28.832Z,95.12
2017-05-31T04:03:29.514Z,94.98
2017-05-31T04:04:30.195Z,95.17
2017-05-31T04:05:30.860Z,95.31
2017-05-31T04:06:31.547Z,94.4
2017-05-31T04:07:32.222Z,94.35
2017-05-31T04:08:32.945Z,93.92
2017-05-31T04:09:33.606Z,94.26
2017-05-31T04:10:34.278Z,94.35
2017-05-31T04:11:34.955Z,94.64
2017-05-31T04:12:35.630Z,94.64
2017-05-31T04:13:36.326Z,94.02
2017-05-31T04:14:37.014Z,94.54
2017-05-31T04:15:37.689Z,94.17
2017-05-31T04:16:38.358Z,94.35
2017-05-31T04:17:39.036Z,94.26
2017-05-31T04:18:39.699Z,94.54
2017-05-31T04:19:40.373Z,94.02
2017-05-31T04:20:41.042Z,94.35
2017-05-31T04:21:41.723Z,94.64
2017-05-31T04:22:42.391Z,94.4
2017-05-31T04:23:43.062Z,94.02
2017-05-31T04:24:43.749Z,94.07
2017-05-31T04:25:44.441Z,94.64
2017-05-31T04:26:45.136Z,93.59
2017-05-31T04:27:45.827Z,93.59
2017-05-31T04:28:46.495Z,93.88
2017-05-31T04:29:47.197Z,93.78
2017-05-31T04:30:47.877Z,94.49
2017-05-31T04:31:48.548Z,93.97
2017-05-31T04:32:49.235Z,94.54
2017-05-31T04:33:49.947Z,94.69
2017-05-31T04:34:50.561Z,93.92
2017-05-31T04:35:51.241Z,94.64
2017-05-31T04:36:51.937Z,94.54
2017-05-31T04:37:52.628Z,94.35
2017-05-31T04:38:53.303Z,94.93
2017-05-31T04:39:54.003Z,94.84
2017-05-31T04:40:54.692Z,94.64
2017-05-31T04:41:55.397Z,94.35
2017-05-31T04:42:56.054Z,94.26
2017-05-31T04:43:56.717Z,94.64
2017-05-31T04:44:57.390Z,94.93
2017-05-31T04:45:58.070Z,94.74
2017-05-31T04:46:58.738Z,94.93
2017-05-31T04:47:59.435Z,95.03
2017-05-31T04:49:00.110Z,94.74
2017-05-31T04:50:00.782Z,94.64
2017-05-31T04:51:01.455Z,94.35
2017-05-31T04:52:02.129Z,94.4
2017-05-31T04:53:02.815Z,94.31
2017-05-31T04:54:03.496Z,93.78
2017-05-31T04:55:04.163Z,93.11
2017-05-31T04:56:04.844Z,93.15
2017-05-31T04:57:05.518Z,93.11
2017-05-31T04:58:06.199Z,92.96
2017-05-31T04:59:06.880Z,92.96
2017-05-31T05:00:07.561Z,92.68
2017-05-31T05:01:08.251Z,92.58
2017-05-31T05:02:08.921Z,91.91
2017-05-31T05:03:09.614Z,90.85
2017-05-31T05:04:10.280Z,90.56
2017-05-31T05:05:10.941Z,90.75
2017-05-31T05:06:11.635Z,90.28
2017-05-31T05:07:12.303Z,89.99
2017-05-31T05:08:12.980Z,88.84
2017-05-31T05:09:13.656Z,88.07
2017-05-31T05:10:15.904Z,87.73
2017-05-31T05:11:15.973Z,86.82
2017-05-31T05:12:16.633Z,85.42
2017-05-31T05:13:17.324Z,84.75
2017-05-31T05:14:18.001Z,83.56
2017-05-31T05:15:18.682Z,82.31
2017-05-31T05:16:19.349Z,81.45
2017-05-31T05:17:20.037Z,80.4
2017-05-31T05:18:20.705Z,80.58
2017-05-31T05:19:21.389Z,80.01
2017-05-31T05:20:22.107Z,80.01
2017-05-31T05:21:22.808Z,80.3
2017-05-31T05:22:23.552Z,80.15
2017-05-31T05:23:24.257Z,79.96
2017-05-31T05:24:24.935Z,79.38
2017-05-31T05:25:25.603Z,79.67
2017-05-31T05:26:26.265Z,78.9
2017-05-31T05:27:26.977Z,79.47
2017-05-31T05:28:27.644Z,79.96
2017-05-31T05:29:28.327Z,80.15
2017-05-31T05:30:29.018Z,80.43
2017-05-31T05:31:29.781Z,80.86
2017-05-31T05:32:30.458Z,80.47
2017-05-31T05:33:31.142Z,80.57
2017-05-31T05:34:31.822Z,80.28
2017-05-31T05:35:32.519Z,80.28
2017-05-31T05:36:33.181Z,80.28
2017-05-31T05:37:33.874Z,79.61
2017-05-31T05:38:34.539Z,79.52
2017-05-31T05:39:35.222Z,79.8
2017-05-31T05:40:35.926Z,79.61
2017-05-31T05:41:36.590Z,79.32
2017-05-31T05:42:37.267Z,78.55
2017-05-31T05:43:37.947Z,78.36
2017-05-31T05:44:38.629Z,78.5
2017-05-31T05:45:39.303Z,79.46
2017-05-31T05:46:39.981Z,78.02
2017-05-31T05:47:40.663Z,76.86
2017-05-31T05:48:41.356Z,76.57
2017-05-31T05:49:42.042Z,76.42
2017-05-31T05:50:42.725Z,74.6
2017-05-31T05:51:43.387Z,73.67
2017-05-31T05:52:44.064Z,72.61
2017-05-31T05:53:44.744Z,72.13
2017-05-31T05:54:45.436Z,71.65
2017-05-31T05:55:46.123Z,72.32
2017-05-31T05:56:46.810Z,72.71
2017-05-31T05:57:47.498Z,71.71
2017-05-31T05:58:48.174Z,71.33
2017-05-31T05:59:48.840Z,70.27
2017-05-31T06:00:49.518Z,71.04
2017-05-31T06:01:50.194Z,70.65
2017-05-31T06:02:50.871Z,71.42
2017-05-31T06:03:51.534Z,70.65
2017-05-31T06:04:52.211Z,71.46
2017-05-31T06:05:52.895Z,71.65
2017-05-31T06:06:53.574Z,71.26
2017-05-31T06:07:54.262Z,69.82
2017-05-31T06:08:54.924Z,70.88
2017-05-31T06:09:55.617Z,69.53
2017-05-31T06:10:56.320Z,69.82
2017-05-31T06:11:57.012Z,69.44
2017-05-31T06:12:57.694Z,69.24
2017-05-31T06:13:58.391Z,68.96
2017-05-31T06:14:59.067Z,68.76
2017-05-31T06:15:59.753Z,68.86
2017-05-31T06:17:00.461Z,68.51
2017-05-31T06:18:01.141Z,68.8
2017-05-31T06:19:01.863Z,68.13
2017-05-31T06:20:02.490Z,66.52
2017-05-31T06:21:03.156Z,65.75
2017-05-31T06:22:03.830Z,65.59
2017-05-31T06:23:04.504Z,65.98
2017-05-31T06:24:05.192Z,65.37
2017-05-31T06:25:05.848Z,65.78
2017-05-31T06:26:06.525Z,63.89
2017-05-31T06:27:07.199Z,62.09
2017-05-31T06:28:07.871Z,60.58
2017-05-31T06:29:08.537Z,59.45
2017-05-31T06:30:09.219Z,57.81
2017-05-31T06:31:09.894Z,56.87
2017-05-31T06:32:10.565Z,56.32
2017-05-31T06:33:11.240Z,55.57
2017-05-31T06:34:11.976Z,54.1
2017-05-31T06:35:12.675Z,55.07
2017-05-31T06:36:13.352Z,55.16
2017-05-31T06:37:14.039Z,54.03
2017-05-31T06:38:14.725Z,53.16
2017-05-31T06:39:15.410Z,53.47
2017-05-31T06:40:16.110Z,52.44
2017-05-31T06:41:16.804Z,51.28
2017-05-31T06:42:17.482Z,52.58
2017-05-31T06:43:18.171Z,52.51
2017-05-31T06:44:18.880Z,52.22
2017-05-31T06:45:19.562Z,53.93
2017-05-31T06:46:20.243Z,53.71
2017-05-31T06:47:20.923Z,54.97
2017-05-31T06:48:21.597Z,54.94
2017-05-31T06:49:22.300Z,56.36
2017-05-31T06:50:22.979Z,57.42
2017-05-31T06:51:23.668Z,57.2
2017-05-31T06:52:24.345Z,58.04
2017-05-31T06:53:25.051Z,59.39
2017-05-31T06:54:25.736Z,60.52
2017-05-31T06:55:26.421Z,61.38
2017-05-31T06:56:27.149Z,61.87
2017-05-31T06:57:27.838Z,61.51
2017-05-31T06:58:28.510Z,61.51
2017-05-31T06:59:29.191Z,59.23
2017-05-31T07:00:29.872Z,59.03
2017-05-31T07:01:30.552Z,58.17
2017-05-31T07:02:31.244Z,58.14
2017-05-31T07:03:31.907Z,59.84
2017-05-31T07:04:32.624Z,61.48
2017-05-31T07:05:33.315Z,61.16
2017-05-31T07:06:34.007Z,61.35
2017-05-31T07:07:34.687Z,62.45
2017-05-31T07:08:35.368Z,61.19
2017-05-31T07:09:36.054Z,61.22
2017-05-31T07:10:36.751Z,61.41
2017-05-31T07:11:37.426Z,60.58
2017-05-31T07:12:38.110Z,57.32
2017-05-31T07:13:38.811Z,56.84
2017-05-31T07:14:39.514Z,57.23
2017-05-31T07:15:40.217Z,57.59
2017-05-31T07:16:40.938Z,58.29
2017-05-31T07:17:41.618Z,56.39
2017-05-31T07:18:42.337Z,56.74
2017-05-31T07:19:43.093Z,58.45
2017-05-31T07:20:43.863Z,57.06
2017-05-31T07:21:44.560Z,56.87
2017-05-31T07:22:45.233Z,55.55
2017-05-31T07:23:45.915Z,54.97
2017-05-31T07:24:46.600Z,56.84
2017-05-31T07:25:47.299Z,57.39
2017-05-31T07:26:47.973Z,58.52
2017-05-31T07:27:48.650Z,59.78
2017-05-31T07:28:49.339Z,60.52
2017-05-31T07:29:50.036Z,61.38
2017-05-31T07:30:50.720Z,61.58
2017-05-31T07:31:51.400Z,60.16
2017-05-31T07:32:52.124Z,58.48
2017-05-31T07:33:52.804Z,56.29
2017-05-31T07:34:53.525Z,55.16
2017-05-31T07:35:54.219Z,54.68
2017-05-31T07:36:54.904Z,54.61
2017-05-31T07:37:55.607Z,53.19
2017-05-31T07:38:56.301Z,52.44
2017-05-31T07:39:57.039Z,51.59
2017-05-31T07:40:57.733Z,50.31
2017-05-31T07:41:58.415Z,51.18
2017-05-31T07:42:59.113Z,49.85
2017-05-31T07:43:59.817Z,49.39
2017-05-31T07:45:00.504Z,49.29
2017-05-31T07:46:01.199Z,48.95
2017-05-31T07:47:01.898Z,50.67
2017-05-31T07:48:02.583Z,51.39
2017-05-31T07:49:03.286Z,52.84
2017-05-31T07:50:03.957Z,54.91
2017-05-31T07:51:04.633Z,55.3
2017-05-31T07:52:05.330Z,56.16
2017-05-31T07:53:06.024Z,55.68
2017-05-31T07:54:06.724Z,54.87
2017-05-31T07:55:07.406Z,52.58
2017-05-31T07:56:08.086Z,52.77
2017-05-31T07:57:08.801Z,53.59
2017-05-31T07:58:09.496Z,53.61
2017-05-31T07:59:10.170Z,53.16
2017-05-31T08:00:10.893Z,52.17
2017-05-31T08:01:11.606Z,52.72
2017-05-31T08:02:12.301Z,53.95
2017-05-31T08:03:12.992Z,54.82
2017-05-31T08:04:13.706Z,53.97
2017-05-31T08:05:14.371Z,55.13
2017-05-31T08:06:15.044Z,55.3
2017-05-31T08:07:15.716Z,55.27
2017-05-31T08:08:16.386Z,55.36
2017-05-31T08:09:17.070Z,55.76
2017-05-31T08:10:17.784Z,56.3
2017-05-31T08:11:18.474Z,56.4
2017-05-31T08:12:19.176Z,55.08
2017-05-31T08:13:19.860Z,55.18
2017-05-31T08:14:20.550Z,55.1
2017-05-31T08:15:21.227Z,54.98
2017-05-31T08:16:21.924Z,53.83
2017-05-31T08:17:22.605Z,52.98
2017-05-31T08:18:23.276Z,52.33
2017-05-31T08:19:23.975Z,52.14
2017-05-31T08:20:24.677Z,52.62
2017-05-31T08:21:25.359Z,54.05
2017-05-31T08:22:26.052Z,54.11
2017-05-31T08:23:26.772Z,54.31
2017-05-31T08:24:27.454Z,55.27
2017-05-31T08:25:28.141Z,55.44
2017-05-31T08:26:28.830Z,56.4
2017-05-31T08:27:29.519Z,56.72
2017-05-31T08:28:30.209Z,55.4
2017-05-31T08:29:30.902Z,54.17
2017-05-31T08:30:31.608Z,51.97
2017-05-31T08:31:32.310Z,51.23
2017-05-31T08:32:32.999Z,50.45
2017-05-31T08:33:33.689Z,50.35
2017-05-31T08:34:34.374Z,50.84
2017-05-31T08:35:35.101Z,51.2
2017-05-31T08:36:35.793Z,51.87
2017-05-31T08:37:36.476Z,51.78
2017-05-31T08:38:37.163Z,51.97
2017-05-31T08:39:37.878Z,52.17
2017-05-31T08:40:38.577Z,52.91
2017-05-31T08:41:39.258Z,53.66
2017-05-31T08:42:39.942Z,53.75
2017-05-31T08:43:40.632Z,52.94
2017-05-31T08:44:41.320Z,51.87
2017-05-31T08:45:42.003Z,51.03
2017-05-31T08:46:42.714Z,49.87
2017-05-31T08:47:43.411Z,49.87
2017-05-31T08:48:44.114Z,48.35
2017-05-31T08:49:44.840Z,48.13
2017-05-31T08:50:45.567Z,48.06
2017-05-31T08:51:46.297Z,47.6
2017-05-31T08:52:47.155Z,46.44
2017-05-31T08:53:47.929Z,46.63
2017-05-31T08:54:48.654Z,45.37
2017-05-31T08:55:49.388Z,45.68
2017-05-31T08:56:50.140Z,45.18
2017-05-31T08:57:50.878Z,45.66
2017-05-31T08:58:51.616Z,46.25
2017-05-31T08:59:52.405Z,46.51
2017-05-31T09:00:53.113Z,46.58
2017-05-31T09:01:53.888Z,47.43
2017-05-31T09:02:54.577Z,48.37
2017-05-31T09:03:55.296Z,48.11
2017-05-31T09:04:56.054Z,47.53
2017-05-31T09:05:56.736Z,47.33
2017-05-31T09:06:57.427Z,46.68
2017-05-31T09:07:58.348Z,45.69
2017-05-31T09:08:59.049Z,45.91
2017-05-31T09:09:59.746Z,45.5
2017-05-31T09:11:00.441Z,45.23
2017-05-31T09:12:01.130Z,44.26
2017-05-31T09:13:01.820Z,44.56
2017-05-31T09:14:02.505Z,45.72
2017-05-31T09:15:03.197Z,45.14
2017-05-31T09:16:03.891Z,43.68
2017-05-31T09:17:04.651Z,43.78
2017-05-31T09:18:05.366Z,44.67
2017-05-31T09:19:06.161Z,44.19
2017-05-31T09:20:06.846Z,43.99
2017-05-31T09:21:07.522Z,43.78
2017-05-31T09:22:08.208Z,45.4
2017-05-31T09:23:08.893Z,46.64
2017-05-31T09:24:09.585Z,49.02
2017-05-31T09:25:10.278Z,51.03
2017-05-31T09:26:10.984Z,52.67
2017-05-31T09:27:11.677Z,53.8
2017-05-31T09:28:12.365Z,54.47
2017-05-31T09:29:13.052Z,55.05
2017-05-31T09:30:13.753Z,54.6
2017-05-31T09:31:14.452Z,53.66
2017-05-31T09:32:15.129Z,52.89
2017-05-31T09:33:15.821Z,52.72
2017-05-31T09:34:16.512Z,52.75
2017-05-31T09:35:17.209Z,51.2
2017-05-31T09:36:17.905Z,50.62
2017-05-31T09:37:18.582Z,51.07
2017-05-31T09:38:19.290Z,51.07
2017-05-31T09:39:19.988Z,51.92
2017-05-31T09:40:20.675Z,52.28
2017-05-31T09:41:21.375Z,52.69
2017-05-31T09:42:22.057Z,52.59
2017-05-31T09:43:22.762Z,52.21
2017-05-31T09:44:23.464Z,52.79
2017-05-31T09:45:24.152Z,52.01
2017-05-31T09:46:24.841Z,52.01
2017-05-31T09:47:25.565Z,52.69
2017-05-31T09:48:26.257Z,52.11
2017-05-31T09:49:26.943Z,51.34
2017-05-31T09:50:27.650Z,51.37
2017-05-31T09:51:28.340Z,50.67
2017-05-31T09:52:29.051Z,51.25
2017-05-31T09:53:29.718Z,51.63
2017-05-31T09:54:30.410Z,51.25
2017-05-31T09:55:31.152Z,50.86
2017-05-31T09:56:31.876Z,50.96
2017-05-31T09:57:32.645Z,51.41
2017-05-31T09:58:33.426Z,52.19
2017-05-31T09:59:34.151Z,51.87
2017-05-31T10:00:34.888Z,52.16
2017-05-31T10:01:35.570Z,52.06
2017-05-31T10:02:36.266Z,52.71
2017-05-31T10:03:36.949Z,53.09
2017-05-31T10:04:37.628Z,53.87
2017-05-31T10:05:38.304Z,54.44
2017-05-31T10:06:39.003Z,54.93
2017-05-31T10:07:39.694Z,55.12
2017-05-31T10:08:40.391Z,54.64
2017-05-31T10:09:41.076Z,54.06
2017-05-31T10:10:41.763Z,53.61
2017-05-31T10:11:42.456Z,53.87
2017-05-31T10:12:43.134Z,53.67
2017-05-31T10:13:43.845Z,53.87
2017-05-31T10:14:44.516Z,54.93
2017-05-31T10:15:45.220Z,54.42
2017-05-31T10:16:45.904Z,54.8
2017-05-31T10:17:46.593Z,55.29
2017-05-31T10:18:47.331Z,55.57
2017-05-31T10:19:48.014Z,54.93
2017-05-31T10:20:48.690Z,55.02
2017-05-31T10:21:49.376Z,54.54
2017-05-31T10:22:50.053Z,54.52
2017-05-31T10:23:50.749Z,54.32
2017-05-31T10:24:51.441Z,55.38
2017-05-31T10:25:52.107Z,55
2017-05-31T10:26:52.802Z,54.61
2017-05-31T10:27:53.515Z,54.13
2017-05-31T10:28:54.204Z,54.06
2017-05-31T10:29:54.905Z,53.96
2017-05-31T10:30:55.687Z,54.83
2017-05-31T10:31:56.367Z,53.67
2017-05-31T10:32:57.052Z,53.87
2017-05-31T10:33:57.737Z,53.67
2017-05-31T10:34:58.420Z,52.81
